Time;durP1;ratioP1;P1;durP2;ratioP2;P2;SDS_P1;SDS_P2;PMS_P1;PMS_P2;Temp;Humidity;BMP_temperature;BMP_pressure;BME280_temperature;BME280_humidity;BME280_pressure;Samples;Min_cycle;Max_cycle;Signal;HPM_P1;HPM_P2
2023/07/04 00:00:43;;;;;;;;;;;;;;;14.42;100.00;101021.06;10582352;28;19931;-66
2023/07/04 00:05:46;;;;;;;;;;;;;;;14.38;100.00;101024.88;10581945;28;20367;-67
2023/07/04 00:10:50;;;;;;;;;;;;;;;14.07;100.00;101009.41;10581733;28;19930;-67
2023/07/04 00:15:53;;;;;;;;;;;;;;;14.01;100.00;101009.81;10581775;28;20286;-67
2023/07/04 00:20:57;;;;;;;;;;;;;;;14.03;100.00;101021.06;10563747;28;19955;-66
2023/07/04 00:25:59;;;;;;;;;;;;;;;14.13;100.00;101021.28;10563515;28;19956;-66
2023/07/04 00:31:02;;;;;;;;;;;;;;;13.73;100.00;100995.91;10563568;28;19924;-66
2023/07/04 00:36:09;;;;;;;;;;;;;;;13.75;100.00;100983.50;10581515;28;19931;-66
2023/07/04 00:41:13;;;;;;;;;;;;;;;13.75;100.00;100999.28;10563328;28;19923;-67
2023/07/04 00:46:15;;;;;;;;;;;;;;;14.09;100.00;100989.06;10563172;28;20317;-67
2023/07/04 00:51:21;;;;;;;;;;;;;;;13.90;100.00;100994.78;10581319;28;19924;-67
2023/07/04 00:56:25;;;;;;;;;;;;;;;13.68;100.00;100995.34;10588901;28;19999;-68
2023/07/04 01:01:27;;;;;;;;;;;;;;;13.80;100.00;100998.97;10589077;28;19924;-67
2023/07/04 01:06:32;;;;;;;;;;;;;;;13.64;100.00;100987.78;10570516;28;19924;-66
2023/07/04 01:11:42;;;;;;;;;;;;;;;13.97;100.00;100999.59;10588853;28;19930;-67
2023/07/04 01:16:44;;;;;;;;;;;;;;;13.99;100.00;100987.19;10571462;28;19931;-67
2023/07/04 01:21:47;;;;;;;;;;;;;;;13.83;100.00;100988.22;10569870;28;19934;-67
2023/07/04 01:26:49;;;;;;;;;;;;;;;13.95;100.00;100986.53;10569832;28;19924;-67
2023/07/04 01:31:52;;;;;;;;;;;;;;;14.12;100.00;100999.41;10569611;28;19996;-67
2023/07/04 01:36:54;;;;;;;;;;;;;;;13.98;100.00;101017.91;10587551;28;19923;-67
2023/07/04 01:41:56;;;;;;;;;;;;;;;14.28;100.00;101037.84;10587355;28;19928;-67
2023/07/04 01:46:59;;;;;;;;;;;;;;;13.55;100.00;101034.81;10569033;28;19924;-65
2023/07/04 01:52:01;;;;;;;;;;;;;;;13.45;100.00;101041.63;10569080;28;19930;-67
2023/07/04 01:57:05;;;;;;;;;;;;;;;13.86;100.00;101029.28;10586720;28;20379;-67
2023/07/04 02:02:08;;;;;;;;;;;;;;;13.82;100.00;101027.78;10586558;28;19923;-68
2023/07/04 02:07:11;;;;;;;;;;;;;;;14.00;100.00;101016.03;10567622;28;19949;-67
2023/07/04 02:12:13;;;;;;;;;;;;;;;14.09;100.00;101022.47;10586067;28;20014;-67
2023/07/04 02:17:15;;;;;;;;;;;;;;;14.01;100.00;101015.09;10585865;28;19923;-67
2023/07/04 02:22:18;;;;;;;;;;;;;;;13.73;100.00;101011.72;10585691;28;20007;-68
2023/07/04 02:27:20;;;;;;;;;;;;;;;13.75;100.00;101004.56;10585533;28;19924;-67
2023/07/04 02:32:22;;;;;;;;;;;;;;;14.07;100.00;100995.38;10585255;28;19931;-67
2023/07/04 02:37:24;;;;;;;;;;;;;;;14.25;100.00;100996.75;10585207;28;19924;-67
2023/07/04 02:42:27;;;;;;;;;;;;;;;14.01;100.00;101001.91;10584760;28;19927;-67
2023/07/04 02:47:29;;;;;;;;;;;;;;;14.27;100.00;100989.59;10584430;28;19924;-67
2023/07/04 02:52:31;;;;;;;;;;;;;;;14.27;100.00;100997.50;10584520;28;19930;-67
2023/07/04 02:57:33;;;;;;;;;;;;;;;14.19;100.00;100996.31;10584194;28;19930;-67
2023/07/04 03:02:36;;;;;;;;;;;;;;;14.10;100.00;100988.13;10584211;28;19937;-67
2023/07/04 03:07:38;;;;;;;;;;;;;;;13.91;100.00;100979.81;10565729;28;19974;-67
2023/07/04 03:12:41;;;;;;;;;;;;;;;13.81;100.00;100986.66;10565465;28;19923;-67
2023/07/04 03:17:43;;;;;;;;;;;;;;;13.75;100.00;100985.25;10582694;28;19924;-67
2023/07/04 03:22:46;;;;;;;;;;;;;;;13.72;100.00;100990.75;10583178;28;19924;-68
2023/07/04 03:27:48;;;;;;;;;;;;;;;13.88;100.00;100993.19;10577884;22;19927;-62
2023/07/04 03:32:50;;;;;;;;;;;;;;;14.28;100.00;100993.06;10565038;28;19934;-62
2023/07/04 03:37:52;;;;;;;;;;;;;;;13.97;100.00;100997.81;10582690;28;19930;-62
2023/07/04 03:42:55;;;;;;;;;;;;;;;14.18;100.00;100997.28;10582659;28;19930;-63
2023/07/04 03:47:57;;;;;;;;;;;;;;;14.23;100.00;100997.81;10564680;28;19930;-62
2023/07/04 03:52:59;;;;;;;;;;;;;;;14.08;100.00;101015.50;10582475;28;19930;-62
2023/07/04 03:58:02;;;;;;;;;;;;;;;13.98;100.00;101007.38;10582184;28;20037;-62
2023/07/04 04:03:04;;;;;;;;;;;;;;;13.91;100.00;101008.75;10582119;28;19979;-62
2023/07/04 04:08:07;;;;;;;;;;;;;;;14.13;100.00;101006.34;10581827;28;20463;-62
2023/07/04 04:13:09;;;;;;;;;;;;;;;13.97;100.00;101010.13;10564137;28;19930;-62
2023/07/04 04:18:11;;;;;;;;;;;;;;;14.06;100.00;101012.97;10581934;28;19927;-62
2023/07/04 04:23:15;;;;;;;;;;;;;;;14.09;100.00;101014.56;10581749;28;20290;-62
2023/07/04 04:28:17;;;;;;;;;;;;;;;14.09;100.00;101025.09;10584603;28;19924;-62
2023/07/04 04:33:20;;;;;;;;;;;;;;;14.21;100.00;101020.78;10590004;28;19977;-62
2023/07/04 04:38:22;;;;;;;;;;;;;;;14.22;100.00;101018.03;10589902;28;20389;-60
2023/07/04 04:43:24;;;;;;;;;;;;;;;14.07;100.00;101029.59;10589595;28;19924;-60
2023/07/04 04:48:35;;;;;;;;;;;;;;;14.28;100.00;101043.09;10571563;28;19923;-61
2023/07/04 04:53:37;;;;;;;;;;;;;;;14.26;100.00;101040.56;10589273;28;20462;-60
2023/07/04 04:58:43;;;;;;;;;;;;;;;14.64;100.00;101033.59;10588958;28;19924;-60
2023/07/04 05:03:46;;;;;;;;;;;;;;;14.74;100.00;101037.25;10588859;28;20370;-60
2023/07/04 05:08:48;;;;;;;;;;;;;;;14.78;100.00;101043.19;10588587;28;19923;-61
2023/07/04 05:13:50;;;;;;;;;;;;;;;14.75;100.00;101054.78;10570517;28;19934;-61
2023/07/04 05:18:53;;;;;;;;;;;;;;;14.88;100.00;101059.16;10588219;28;19977;-61
2023/07/04 05:23:55;;;;;;;;;;;;;;;14.77;100.00;101039.69;10588032;28;20281;-61
2023/07/04 05:28:58;;;;;;;;;;;;;;;14.93;100.00;101039.44;10569592;28;19930;-61
2023/07/04 05:34:00;;;;;;;;;;;;;;;14.90;100.00;101047.56;10569751;28;19999;-61
2023/07/04 05:39:05;;;;;;;;;;;;;;;14.94;100.00;101051.66;10586634;28;19930;-61
2023/07/04 05:44:08;;;;;;;;;;;;;;;15.13;100.00;101056.47;10569554;28;19923;-61
2023/07/04 05:49:11;;;;;;;;;;;;;;;15.14;100.00;101054.66;10587256;28;19935;-61
2023/07/04 05:54:13;;;;;;;;;;;;;;;15.38;100.00;101060.78;10586910;28;19938;-61
2023/07/04 05:59:15;;;;;;;;;;;;;;;15.24;100.00;101064.41;10586632;28;20006;-61
2023/07/04 06:04:18;;;;;;;;;;;;;;;15.32;100.00;101052.47;10586375;28;20374;-61
2023/07/04 06:09:21;;;;;;;;;;;;;;;15.51;100.00;101071.25;10586133;28;19978;-61
2023/07/04 06:14:26;;;;;;;;;;;;;;;15.46;100.00;101068.13;10586203;28;19977;-61
2023/07/04 06:19:29;;;;;;;;;;;;;;;15.59;100.00;101066.25;10585773;28;19923;-61
2023/07/04 06:24:31;;;;;;;;;;;;;;;15.72;100.00;101068.00;10585821;28;19928;-61
2023/07/04 06:29:33;;;;;;;;;;;;;;;15.93;100.00;101078.75;10585321;28;19924;-61
2023/07/04 06:34:35;;;;;;;;;;;;;;;16.16;100.00;101093.69;10585101;28;19923;-61
2023/07/04 06:39:37;;;;;;;;;;;;;;;15.90;100.00;101089.56;10564946;28;19924;-61
2023/07/04 06:44:43;;;;;;;;;;;;;;;16.53;100.00;101100.59;10584320;28;19928;-62
2023/07/04 06:49:45;;;;;;;;;;;;;;;16.26;100.00;101104.41;10582499;28;19924;-61
2023/07/04 06:54:51;;;;;;;;;;;;;;;16.45;100.00;101110.94;10566283;28;19931;-61
2023/07/04 06:59:54;;;;;;;;;;;;;;;16.12;100.00;101117.81;10566217;28;20022;-61
2023/07/04 07:04:57;;;;;;;;;;;;;;;16.21;100.00;101106.56;10584027;28;19924;-61
2023/07/04 07:09:59;;;;;;;;;;;;;;;16.18;100.00;101104.16;10565430;28;20384;-61
2023/07/04 07:15:01;;;;;;;;;;;;;;;16.23;100.00;101109.09;10583453;28;20393;-61
2023/07/04 07:20:04;;;;;;;;;;;;;;;16.78;100.00;101110.09;10583094;28;19935;-61
2023/07/04 07:25:07;;;;;;;;;;;;;;;16.99;97.55;101112.03;10583067;28;19930;-61
2023/07/04 07:30:09;;;;;;;;;;;;;;;17.31;92.98;101100.66;10582704;28;19923;-61
2023/07/04 07:35:11;;;;;;;;;;;;;;;17.72;92.12;101112.31;10564824;28;19928;-61
2023/07/04 07:40:13;;;;;;;;;;;;;;;18.23;87.91;101103.66;10582683;28;19931;-62
2023/07/04 07:45:16;;;;;;;;;;;;;;;18.38;86.24;101094.38;10582600;28;19970;-61
2023/07/04 07:50:18;;;;;;;;;;;;;;;18.03;85.17;101104.50;10582727;28;19924;-62
2023/07/04 07:55:20;;;;;;;;;;;;;;;18.86;80.97;101119.50;10582478;28;19924;-62
2023/07/04 08:00:23;;;;;;;;;;;;;;;17.23;81.72;101125.09;10582545;28;19969;-61
2023/07/04 08:05:25;;;;;;;;;;;;;;;17.71;78.65;101113.28;10563676;28;19955;-61
2023/07/04 08:10:28;;;;;;;;;;;;;;;18.67;75.50;101106.94;10582021;28;19924;-61
2023/07/04 08:15:30;;;;;;;;;;;;;;;19.29;73.43;101106.88;10581898;28;20293;-61
2023/07/04 08:20:32;;;;;;;;;;;;;;;19.49;72.54;101107.75;10581799;28;19955;-61
2023/07/04 08:25:38;;;;;;;;;;;;;;;18.95;73.10;101107.22;10581671;28;19931;-61
2023/07/04 08:30:41;;;;;;;;;;;;;;;18.49;74.41;101120.00;10581753;28;19953;-61
2023/07/04 08:35:53;;;;;;;;;;;;;;;18.25;72.68;101135.34;10582091;28;19924;-61
2023/07/04 08:40:56;;;;;;;;;;;;;;;19.26;71.46;101123.91;10563472;28;19924;-61
2023/07/04 08:45:58;;;;;;;;;;;;;;;18.86;72.85;101119.50;10563501;28;19923;-61
2023/07/04 08:51:01;;;;;;;;;;;;;;;18.92;70.50;101128.72;10563167;28;19975;-61
2023/07/04 08:56:12;;;;;;;;;;;;;;;18.99;71.87;101132.50;10563198;28;19924;-61
2023/07/04 09:01:17;;;;;;;;;;;;;;;19.24;68.44;101139.13;10563222;28;19924;-61
2023/07/04 09:06:36;;;;;;;;;;;;;;;19.64;64.67;101155.97;10562844;28;20418;-61
2023/07/04 09:11:39;;;;;;;;;;;;;;;20.10;64.07;101145.66;10563092;28;19924;-62
2023/07/04 09:16:43;;;;;;;;;;;;;;;20.41;62.86;101141.81;10585609;28;19928;-61
2023/07/04 09:21:46;;;;;;;;;;;;;;;19.75;63.72;101155.84;10570383;28;19949;-62
2023/07/04 09:26:50;;;;;;;;;;;;;;;20.21;62.79;101156.97;10569833;28;20014;-62
2023/07/04 09:31:54;;;;;;;;;;;;;;;20.31;64.59;101166.72;10587737;28;20014;-62
2023/07/04 09:36:56;;;;;;;;;;;;;;;20.41;63.72;101165.75;10587817;28;19928;-62
2023/07/04 09:41:59;;;;;;;;;;;;;;;20.33;61.12;101167.44;10587446;28;19931;-61
2023/07/04 09:47:04;;;;;;;;;;;;;;;20.20;61.61;101173.88;10570234;28;19924;-62
2023/07/04 09:52:11;;;;;;;;;;;;;;;21.81;58.30;101162.16;10586995;28;19985;-62
2023/07/04 09:57:18;;;;;;;;;;;;;;;21.80;56.58;101155.13;10586734;28;19927;-62
2023/07/04 10:02:23;;;;;;;;;;;;;;;22.23;58.43;101153.47;10586640;28;19946;-62
2023/07/04 10:07:26;;;;;;;;;;;;;;;22.61;55.15;101167.44;10586454;28;20403;-62
2023/07/04 10:12:29;;;;;;;;;;;;;;;22.23;53.73;101164.16;10586287;28;19969;-62
2023/07/04 10:17:35;;;;;;;;;;;;;;;23.17;53.52;101172.41;10585949;28;20294;-62
2023/07/04 10:22:51;;;;;;;;;;;;;;;24.17;51.07;101166.22;10568048;28;19924;-62
2023/07/04 10:27:55;;;;;;;;;;;;;;;22.55;52.01;101172.56;10584776;28;20015;-61
2023/07/04 10:33:01;;;;;;;;;;;;;;;24.11;52.29;101162.38;10567163;28;19931;-62
2023/07/04 10:38:05;;;;;;;;;;;;;;;24.86;48.80;101161.22;10585114;28;19950;-62
2023/07/04 10:43:12;;;;;;;;;;;;;;;22.68;51.55;101178.31;10585184;28;19930;-62
2023/07/04 10:48:15;;;;;;;;;;;;;;;24.08;50.95;101170.75;10566661;28;19969;-62
2023/07/04 10:53:19;;;;;;;;;;;;;;;23.73;47.44;101168.16;10584725;28;19924;-62
2023/07/04 10:58:22;;;;;;;;;;;;;;;25.11;48.99;101171.84;10566686;28;20018;-62
2023/07/04 11:03:24;;;;;;;;;;;;;;;23.47;47.50;101186.16;10565966;28;19923;-62
2023/07/04 11:08:28;;;;;;;;;;;;;;;21.79;48.41;101187.28;10583838;28;20007;-61
2023/07/04 11:13:30;;;;;;;;;;;;;;;21.44;51.46;101183.56;10565698;28;20336;-62
2023/07/04 11:18:34;;;;;;;;;;;;;;;21.49;54.29;101182.16;10583488;28;19974;-62
2023/07/04 11:23:53;;;;;;;;;;;;;;;21.90;50.79;101176.38;10565621;28;20002;-62
2023/07/04 11:29:06;;;;;;;;;;;;;;;20.99;54.83;101177.19;10583003;28;19999;-63
2023/07/04 11:34:10;;;;;;;;;;;;;;;24.15;48.51;101165.56;10582881;28;19953;-62
2023/07/04 11:39:18;;;;;;;;;;;;;;;23.11;50.94;101163.19;10582154;28;20010;-62
2023/07/04 11:44:21;;;;;;;;;;;;;;;25.70;48.96;101163.31;10582714;28;20301;-62
2023/07/04 11:49:23;;;;;;;;;;;;;;;24.37;46.18;101166.69;10582444;28;20260;-61
2023/07/04 11:54:25;;;;;;;;;;;;;;;24.47;47.42;101173.53;10564659;28;20007;-62
2023/07/04 11:59:43;;;;;;;;;;;;;;;23.45;50.13;101178.34;10564130;28;20279;-62
2023/07/04 12:04:46;;;;;;;;;;;;;;;25.59;45.35;101175.31;10582165;28;19924;-62
2023/07/04 12:10:00;;;;;;;;;;;;;;;26.39;46.15;101165.09;10581986;28;19938;-62
2023/07/04 12:15:08;;;;;;;;;;;;;;;25.07;45.66;101175.91;10581960;28;19931;-62
2023/07/04 12:20:16;;;;;;;;;;;;;;;26.06;45.47;101165.44;10563889;28;19924;-62
2023/07/04 12:25:28;;;;;;;;;;;;;;;24.96;45.71;101166.38;10581730;28;19924;-63
2023/07/04 12:30:30;;;;;;;;;;;;;;;23.63;48.21;101172.84;10563587;28;20295;-63
2023/07/04 12:35:37;;;;;;;;;;;;;;;24.33;48.75;101160.84;10581525;28;20293;-62
2023/07/04 12:40:40;;;;;;;;;;;;;;;23.88;48.53;101164.88;10581570;28;20027;-63
2023/07/04 12:45:43;;;;;;;;;;;;;;;23.61;48.71;101166.84;10563363;28;20285;-62
2023/07/04 12:50:49;;;;;;;;;;;;;;;23.83;47.44;101160.03;10586713;28;19924;-62
2023/07/04 12:55:51;;;;;;;;;;;;;;;24.05;47.65;101158.53;10571309;28;19927;-63
2023/07/04 13:00:54;;;;;;;;;;;;;;;23.68;49.55;101161.66;10589238;28;19924;-62
2023/07/04 13:05:56;;;;;;;;;;;;;;;23.80;49.74;101162.19;10588671;28;19967;-62
2023/07/04 13:10:59;;;;;;;;;;;;;;;24.34;48.95;101159.00;10588919;28;19930;-61
2023/07/04 13:16:07;;;;;;;;;;;;;;;24.59;47.70;101165.16;10553646;28;20023;-62
2023/07/04 13:21:10;;;;;;;;;;;;;;;24.84;45.52;101155.22;10588159;28;20326;-62
2023/07/04 13:26:17;;;;;;;;;;;;;;;24.80;46.54;101148.56;10569948;28;20073;-62
2023/07/04 13:31:21;;;;;;;;;;;;;;;25.80;45.61;101142.44;10587827;28;19924;-61
2023/07/04 13:36:33;;;;;;;;;;;;;;;25.18;46.74;101148.69;10587875;28;20010;-62
2023/07/04 13:41:36;;;;;;;;;;;;;;;26.37;44.27;101143.81;10587383;28;20404;-62
2023/07/04 13:46:39;;;;;;;;;;;;;;;26.78;44.12;101140.72;10587069;28;20286;-63
2023/07/04 13:51:41;;;;;;;;;;;;;;;26.12;44.46;101143.22;10587221;28;19923;-62
2023/07/04 13:56:43;;;;;;;;;;;;;;;25.85;45.83;101136.56;10586779;28;20286;-62
2023/07/04 14:01:46;;;;;;;;;;;;;;;25.67;41.22;101121.63;10585881;28;19933;-62
2023/07/04 14:06:51;;;;;;;;;;;;;;;25.59;45.21;101125.19;10552388;28;20304;-62
2023/07/04 14:12:00;;;;;;;;;;;;;;;25.09;44.58;101125.66;10586258;28;19923;-62
2023/07/04 14:17:03;;;;;;;;;;;;;;;25.16;46.68;101130.13;10586049;28;19969;-62
2023/07/04 14:22:08;;;;;;;;;;;;;;;24.38;46.74;101134.41;10585858;28;19924;-62
2023/07/04 14:27:10;;;;;;;;;;;;;;;23.70;46.95;101132.91;10585352;28;19924;-62
2023/07/04 14:32:15;;;;;;;;;;;;;;;23.70;49.16;101135.59;10568031;28;19928;-64
2023/07/04 14:37:18;;;;;;;;;;;;;;;23.13;48.33;101137.19;10585231;28;20011;-64
2023/07/04 14:42:20;;;;;;;;;;;;;;;23.12;48.26;101132.81;10585102;28;19928;-64
2023/07/04 14:47:25;;;;;;;;;;;;;;;22.53;50.77;101137.22;10567303;28;19924;-64
2023/07/04 14:52:28;;;;;;;;;;;;;;;22.39;50.12;101134.13;10584641;28;19924;-64
2023/07/04 14:57:30;;;;;;;;;;;;;;;22.11;51.41;101136.06;10584565;28;20449;-64
2023/07/04 15:02:33;;;;;;;;;;;;;;;21.95;49.77;101130.59;10584245;28;19934;-65
2023/07/04 15:07:35;;;;;;;;;;;;;;;22.08;51.49;101129.22;10565847;28;20285;-64
2023/07/04 15:12:37;;;;;;;;;;;;;;;22.01;54.07;101127.34;10583970;28;19923;-64
2023/07/04 15:17:40;;;;;;;;;;;;;;;22.21;51.79;101123.47;10565642;28;19931;-64
2023/07/04 15:22:42;;;;;;;;;;;;;;;22.18;52.40;101121.13;10583601;28;19966;-64
2023/07/04 15:27:44;;;;;;;;;;;;;;;22.39;51.99;101115.47;10582844;28;19924;-65
2023/07/04 15:32:46;;;;;;;;;;;;;;;22.44;53.22;101115.81;10583347;28;19924;-64
2023/07/04 15:37:49;;;;;;;;;;;;;;;21.95;52.95;101112.78;10583055;28;19924;-64
2023/07/04 15:42:51;;;;;;;;;;;;;;;21.67;53.08;101101.38;10521589;22;19925;-66
2023/07/04 15:47:55;;;;;;;;;;;;;;;21.66;56.24;101099.72;10456606;28;20299;-67
2023/07/04 15:52:57;;;;;;;;;;;;;;;21.27;57.96;101100.00;10456977;28;19925;-67
2023/07/04 15:58:00;;;;;;;;;;;;;;;21.01;60.25;101097.22;10457114;28;19925;-67
2023/07/04 16:03:02;;;;;;;;;;;;;;;21.15;60.80;101084.22;10456895;28;19975;-67
2023/07/04 16:08:05;;;;;;;;;;;;;;;20.97;60.58;101076.22;10456729;28;19925;-67
2023/07/04 16:13:07;;;;;;;;;;;;;;;21.51;59.53;101070.94;10456640;28;20372;-67
2023/07/04 16:18:11;;;;;;;;;;;;;;;21.59;60.12;101064.03;10456490;28;20283;-66
2023/07/04 16:23:13;;;;;;;;;;;;;;;21.12;61.15;101068.56;10457708;28;20030;-67
2023/07/04 16:28:15;;;;;;;;;;;;;;;20.94;62.09;101063.19;10447112;28;19933;-67
2023/07/04 16:33:18;;;;;;;;;;;;;;;21.34;62.36;101053.97;10465060;28;19924;-67
2023/07/04 16:38:21;;;;;;;;;;;;;;;21.84;59.15;101041.91;10464424;28;20291;-67
2023/07/04 16:43:24;;;;;;;;;;;;;;;;;;10462814;28;19925;-66
2023/07/04 16:48:26;;;;;;;;;;;;;;;22.30;57.28;101031.03;10463988;28;19931;-66
2023/07/04 16:53:29;;;;;;;;;;;;;;;21.77;61.37;101029.34;10463775;28;20015;-67
2023/07/04 16:58:34;;;;;;;;;;;;;;;21.92;61.75;101021.63;10462625;28;19964;-66
2023/07/04 17:03:36;;;;;;;;;;;;;;;21.60;62.86;101025.72;10462437;28;20007;-66
2023/07/04 17:08:39;;;;;;;;;;;;;;;21.24;57.76;101013.25;10463434;28;19925;-67
2023/07/04 17:13:41;;;;;;;;;;;;;;;21.38;61.11;101014.53;10462056;28;19970;-67
2023/07/04 17:18:44;;;;;;;;;;;;;;;21.25;66.64;101009.63;10462914;28;19928;-67
2023/07/04 17:23:46;;;;;;;;;;;;;;;21.18;67.13;101003.22;10462645;28;20394;-67
2023/07/04 17:28:48;;;;;;;;;;;;;;;21.28;66.85;101008.47;10444637;28;20293;-67
2023/07/04 17:33:50;;;;;;;;;;;;;;;20.89;69.70;101004.25;10462163;28;19924;-67
2023/07/04 17:38:53;;;;;;;;;;;;;;;20.76;72.63;101007.31;10461398;28;20016;-67
2023/07/04 17:43:55;;;;;;;;;;;;;;;20.60;73.34;101004.41;10461975;28;19954;-67
2023/07/04 17:49:00;;;;;;;;;;;;;;;20.75;73.67;100999.47;10461986;28;19932;-67
2023/07/04 17:54:02;;;;;;;;;;;;;;;20.63;72.98;100995.31;10461486;28;20299;-67
2023/07/04 17:59:06;;;;;;;;;;;;;;;20.76;72.88;100994.00;10461279;28;20390;-66
2023/07/04 18:04:08;;;;;;;;;;;;;;;20.59;75.49;100994.75;10461202;28;19925;-67
2023/07/04 18:09:10;;;;;;;;;;;;;;;20.21;78.67;100999.28;10461072;28;19925;-67
2023/07/04 18:14:13;;;;;;;;;;;;;;;20.16;82.15;101002.38;10459674;28;19936;-67
2023/07/04 18:19:15;;;;;;;;;;;;;;;20.19;82.36;100990.59;10442905;28;19925;-67
2023/07/04 18:24:17;;;;;;;;;;;;;;;19.81;85.35;100977.31;10460544;28;19925;-67
2023/07/04 18:29:19;;;;;;;;;;;;;;;19.56;88.55;100968.09;10459983;28;20356;-67
2023/07/04 18:34:22;;;;;;;;;;;;;;;19.58;92.77;100983.91;10460145;28;20008;-66
2023/07/04 18:39:24;;;;;;;;;;;;;;;19.03;96.80;100982.69;10459873;28;19925;-67
2023/07/04 18:44:26;;;;;;;;;;;;;;;18.91;97.29;100987.28;10459341;28;20008;-66
2023/07/04 18:49:29;;;;;;;;;;;;;;;18.74;97.05;100974.63;10459033;28;19939;-65
2023/07/04 18:54:31;;;;;;;;;;;;;;;18.28;100.00;100989.31;10459241;28;20036;-65
2023/07/04 18:59:34;;;;;;;;;;;;;;;18.06;100.00;100983.22;10459133;28;19925;-66
2023/07/04 19:04:36;;;;;;;;;;;;;;;17.60;100.00;100985.31;10458777;28;19925;-66
2023/07/04 19:09:38;;;;;;;;;;;;;;;17.67;100.00;100977.69;10458701;28;20008;-66
2023/07/04 19:14:41;;;;;;;;;;;;;;;17.34;100.00;100994.56;10458287;28;20383;-66
2023/07/04 19:19:44;;;;;;;;;;;;;;;17.38;100.00;100996.00;10458150;28;20295;-66
2023/07/04 19:24:47;;;;;;;;;;;;;;;17.07;100.00;100988.78;10458172;28;19967;-67
2023/07/04 19:29:49;;;;;;;;;;;;;;;16.91;100.00;100998.91;10457600;28;19924;-66
2023/07/04 19:34:51;;;;;;;;;;;;;;;17.20;100.00;101007.13;10457498;28;19947;-66
2023/07/04 19:39:54;;;;;;;;;;;;;;;17.43;100.00;100989.38;10457252;28;19925;-67
2023/07/04 19:44:56;;;;;;;;;;;;;;;17.26;100.00;100990.78;10457391;28;19931;-66
2023/07/04 19:50:01;;;;;;;;;;;;;;;16.84;100.00;100982.72;10457271;28;19957;-67
2023/07/04 19:55:04;;;;;;;;;;;;;;;17.14;100.00;100957.38;10439435;28;19931;-66
2023/07/04 20:00:07;;;;;;;;;;;;;;;16.98;100.00;100943.72;10456460;28;19932;-66
2023/07/04 20:05:10;;;;;;;;;;;;;;;16.91;100.00;100924.88;10456752;28;20347;-67
2023/07/04 20:10:13;;;;;;;;;;;;;;;16.89;100.00;100905.66;10456867;28;20019;-67
2023/07/04 20:15:15;;;;;;;;;;;;;;;17.03;100.00;100894.78;10456786;28;19924;-66
2023/07/04 20:20:17;;;;;;;;;;;;;;;16.99;100.00;100900.44;10456462;28;19925;-66
2023/07/04 20:25:19;;;;;;;;;;;;;;;16.91;100.00;100879.91;10438921;28;19932;-66
2023/07/04 20:30:22;;;;;;;;;;;;;;;16.56;100.00;100881.00;10456134;28;20363;-67
2023/07/04 20:35:24;;;;;;;;;;;;;;;16.88;100.00;100859.03;10456364;28;19925;-66
2023/07/04 20:40:27;;;;;;;;;;;;;;;17.03;100.00;100852.47;10455970;28;19931;-66
2023/07/04 20:45:29;;;;;;;;;;;;;;;16.93;100.00;100848.91;10454939;28;19931;-66
2023/07/04 20:50:32;;;;;;;;;;;;;;;16.85;100.00;100844.25;10455852;28;20271;-66
2023/07/04 20:55:35;;;;;;;;;;;;;;;16.76;100.00;100833.56;10455939;28;19925;-65
2023/07/04 21:00:40;;;;;;;;;;;;;;;16.68;100.00;100821.00;10455806;28;20399;-65
2023/07/04 21:05:44;;;;;;;;;;;;;;;16.41;100.00;100809.09;10454357;28;20003;-64
2023/07/04 21:10:47;;;;;;;;;;;;;;;16.60;100.00;100791.72;10459196;28;19925;-65
2023/07/04 21:15:50;;;;;;;;;;;;;;;16.56;100.00;100782.34;10463003;28;19929;-65
2023/07/04 21:20:52;;;;;;;;;;;;;;;16.58;100.00;100772.50;10462813;28;20391;-65
2023/07/04 21:26:01;;;;;;;;;;;;;;;16.40;100.00;100764.28;10461629;28;20008;-65
2023/07/04 21:31:07;;;;;;;;;;;;;;;16.49;100.00;100767.03;10461347;28;19935;-66
2023/07/04 21:36:10;;;;;;;;;;;;;;;16.10;100.00;100760.56;10462491;28;19979;-65
2023/07/04 21:41:15;;;;;;;;;;;;;;;16.29;100.00;100746.66;10460795;28;19983;-65
2023/07/04 21:46:22;;;;;;;;;;;;;;;16.40;100.00;100741.34;10462199;28;20020;-66
2023/07/04 21:51:25;;;;;;;;;;;;;;;16.48;100.00;100738.91;10461726;28;19925;-66
2023/07/04 21:56:27;;;;;;;;;;;;;;;16.55;100.00;100715.44;10461679;28;19932;-65
2023/07/04 22:01:29;;;;;;;;;;;;;;;16.43;100.00;100704.09;10461269;28;19931;-66
2023/07/04 22:06:32;;;;;;;;;;;;;;;16.35;100.00;100698.63;10461063;28;19925;-66
2023/07/04 22:11:34;;;;;;;;;;;;;;;16.47;100.00;100679.09;10460996;28;19925;-65
2023/07/04 22:16:36;;;;;;;;;;;;;;;16.46;100.00;100673.97;10459726;28;19925;-65
2023/07/04 22:21:38;;;;;;;;;;;;;;;16.36;100.00;100647.47;10460103;28;19924;-65
2023/07/04 22:26:41;;;;;;;;;;;;;;;16.41;100.00;100647.06;10460439;28;19932;-65
2023/07/04 22:31:43;;;;;;;;;;;;;;;16.39;100.00;100634.00;10460024;28;19929;-65
2023/07/04 22:36:45;;;;;;;;;;;;;;;16.34;100.00;100617.69;10460067;28;19925;-65
2023/07/04 22:41:47;;;;;;;;;;;;;;;16.33;100.00;100619.50;10459552;28;20386;-65
2023/07/04 22:46:50;;;;;;;;;;;;;;;16.25;100.00;100607.91;10459714;28;20015;-66
2023/07/04 22:51:53;;;;;;;;;;;;;;;16.07;100.00;100600.56;10459152;28;19948;-65
2023/07/04 22:56:55;;;;;;;;;;;;;;;16.23;100.00;100584.25;10459066;28;19946;-65
2023/07/04 23:01:57;;;;;;;;;;;;;;;15.73;100.00;100582.19;10458916;28;19931;-65
2023/07/04 23:07:00;;;;;;;;;;;;;;;15.93;100.00;100569.19;10458754;28;19952;-65
2023/07/04 23:12:02;;;;;;;;;;;;;;;15.98;100.00;100561.72;10457220;28;20376;-65
2023/07/04 23:17:04;;;;;;;;;;;;;;;15.91;100.00;100537.63;10457220;28;19925;-66
2023/07/04 23:22:07;;;;;;;;;;;;;;;16.24;100.00;100526.97;10440511;28;20290;-66
2023/07/04 23:27:09;;;;;;;;;;;;;;;16.25;100.00;100518.09;10457983;28;19925;-66
2023/07/04 23:32:11;;;;;;;;;;;;;;;16.31;100.00;100523.69;10457050;28;20000;-66
2023/07/04 23:37:13;;;;;;;;;;;;;;;16.21;100.00;100519.34;10457334;28;19943;-67
2023/07/04 23:42:16;;;;;;;;;;;;;;;16.07;100.00;100526.63;10457228;28;20364;-67
2023/07/04 23:47:18;;;;;;;;;;;;;;;16.16;100.00;100514.44;10457492;28;19939;-67
2023/07/04 23:52:20;;;;;;;;;;;;;;;16.16;100.00;100507.34;10439540;28;19931;-67
2023/07/04 23:57:22;;;;;;;;;;;;;;;16.15;100.00;100491.63;10456080;28;19925;-67
